sensor_id;sensor_type;location;lat;lon;timestamp;pressure;altitude;pressure_sealevel;temperature;humidity
5651;BME280;40241;52.684;9.758;2023-05-20T00:01:56;102359.41;;;15.80;43.30
5651;BME280;40241;52.684;9.758;2023-05-20T00:04:21;102352.03;;;15.77;43.16
5651;BME280;40241;52.684;9.758;2023-05-20T00:06:47;102347.22;;;15.72;43.16
5651;BME280;40241;52.684;9.758;2023-05-20T00:09:12;102379.19;;;15.67;43.11
5651;BME280;40241;52.684;9.758;2023-05-20T00:11:38;102345.88;;;15.67;43.03
5651;BME280;40241;52.684;9.758;2023-05-20T00:14:04;102373.56;;;15.62;42.92
5651;BME280;40241;52.684;9.758;2023-05-20T00:16:29;102344.03;;;15.59;42.92
5651;BME280;40241;52.684;9.758;2023-05-20T00:18:55;102335.34;;;15.51;43.26
5651;BME280;40241;52.684;9.758;2023-05-20T00:21:21;102350.19;;;15.48;43.14
5651;BME280;40241;52.684;9.758;2023-05-20T00:23:46;102355.47;;;15.46;43.01
5651;BME280;40241;52.684;9.758;2023-05-20T00:26:12;102337.19;;;15.40;43.18
5651;BME280;40241;52.684;9.758;2023-05-20T00:28:37;102341.22;;;15.39;43.23
5651;BME280;40241;52.684;9.758;2023-05-20T00:31:02;102354.25;;;15.33;43.14
5651;BME280;40241;52.684;9.758;2023-05-20T00:33:29;102334.28;;;15.29;43.00
5651;BME280;40241;52.684;9.758;2023-05-20T00:35:54;102336.75;;;15.27;42.91
5651;BME280;40241;52.684;9.758;2023-05-20T00:38:19;102335.72;;;15.24;43.08
5651;BME280;40241;52.684;9.758;2023-05-20T00:40:44;102339.75;;;15.23;43.11
5651;BME280;40241;52.684;9.758;2023-05-20T00:43:10;102341.13;;;15.13;43.15
5651;BME280;40241;52.684;9.758;2023-05-20T00:45:36;102356.16;;;15.07;43.29
5651;BME280;40241;52.684;9.758;2023-05-20T00:48:02;102340.47;;;15.03;43.21
5651;BME280;40241;52.684;9.758;2023-05-20T00:50:28;102339.63;;;14.97;43.26
5651;BME280;40241;52.684;9.758;2023-05-20T00:52:54;102339.06;;;14.93;43.28
5651;BME280;40241;52.684;9.758;2023-05-20T00:55:20;102328.38;;;14.86;43.35
5651;BME280;40241;52.684;9.758;2023-05-20T00:57:49;102336.59;;;14.81;43.29
5651;BME280;40241;52.684;9.758;2023-05-20T01:00:14;102350.75;;;14.83;43.34
5651;BME280;40241;52.684;9.758;2023-05-20T01:02:40;102356.88;;;14.72;43.30
5651;BME280;40241;52.684;9.758;2023-05-20T01:05:05;102342.44;;;14.68;43.43
5651;BME280;40241;52.684;9.758;2023-05-20T01:07:31;102353.91;;;14.61;43.66
5651;BME280;40241;52.684;9.758;2023-05-20T01:09:57;102358.16;;;14.57;43.58
5651;BME280;40241;52.684;9.758;2023-05-20T01:12:48;102342.47;;;14.54;43.96
5651;BME280;40241;52.684;9.758;2023-05-20T01:15:17;102335.81;;;14.46;43.83
5651;BME280;40241;52.684;9.758;2023-05-20T01:17:45;102326.72;;;14.45;43.84
5651;BME280;40241;52.684;9.758;2023-05-20T01:20:13;102327.38;;;14.40;43.67
5651;BME280;40241;52.684;9.758;2023-05-20T01:22:51;102324.63;;;14.40;44.15
5651;BME280;40241;52.684;9.758;2023-05-20T01:25:17;102329.09;;;14.38;43.73
5651;BME280;40241;52.684;9.758;2023-05-20T01:27:42;102326.25;;;14.32;43.71
5651;BME280;40241;52.684;9.758;2023-05-20T01:30:09;102330.72;;;14.30;43.54
5651;BME280;40241;52.684;9.758;2023-05-20T01:32:41;102326.88;;;14.27;44.09
5651;BME280;40241;52.684;9.758;2023-05-20T01:35:08;102329.06;;;14.23;43.98
5651;BME280;40241;52.684;9.758;2023-05-20T01:37:37;102324.03;;;14.21;43.85
5651;BME280;40241;52.684;9.758;2023-05-20T01:40:08;102329.72;;;14.18;44.00
5651;BME280;40241;52.684;9.758;2023-05-20T01:42:35;102329.44;;;14.16;43.86
5651;BME280;40241;52.684;9.758;2023-05-20T01:45:01;102312.06;;;14.15;43.90
5651;BME280;40241;52.684;9.758;2023-05-20T01:47:26;102322.56;;;14.11;43.72
5651;BME280;40241;52.684;9.758;2023-05-20T01:49:51;102325.06;;;14.09;43.89
5651;BME280;40241;52.684;9.758;2023-05-20T01:52:20;102319.31;;;13.98;43.81
5651;BME280;40241;52.684;9.758;2023-05-20T01:54:46;102325.63;;;13.99;44.00
5651;BME280;40241;52.684;9.758;2023-05-20T01:57:17;102323.50;;;13.94;44.08
5651;BME280;40241;52.684;9.758;2023-05-20T01:59:42;102314.63;;;13.90;44.09
5651;BME280;40241;52.684;9.758;2023-05-20T02:02:08;102321.13;;;13.87;44.19
5651;BME280;40241;52.684;9.758;2023-05-20T02:04:34;102317.75;;;13.83;44.11
5651;BME280;40241;52.684;9.758;2023-05-20T02:06:59;102311.94;;;13.81;44.24
5651;BME280;40241;52.684;9.758;2023-05-20T02:09:24;102307.38;;;13.78;44.36
5651;BME280;40241;52.684;9.758;2023-05-20T02:11:50;102305.25;;;13.73;44.44
5651;BME280;40241;52.684;9.758;2023-05-20T02:14:15;102302.84;;;13.66;44.38
5651;BME280;40241;52.684;9.758;2023-05-20T02:16:40;102321.56;;;13.71;44.43
5651;BME280;40241;52.684;9.758;2023-05-20T02:19:06;102309.72;;;13.70;44.51
5651;BME280;40241;52.684;9.758;2023-05-20T02:21:40;102307.91;;;13.67;44.48
5651;BME280;40241;52.684;9.758;2023-05-20T02:24:06;102324.69;;;13.64;44.53
5651;BME280;40241;52.684;9.758;2023-05-20T02:26:32;102327.50;;;13.54;44.57
5651;BME280;40241;52.684;9.758;2023-05-20T02:28:58;102331.25;;;13.51;44.54
5651;BME280;40241;52.684;9.758;2023-05-20T02:31:23;102323.88;;;13.48;44.69
5651;BME280;40241;52.684;9.758;2023-05-20T02:33:49;102319.28;;;13.45;44.74
5651;BME280;40241;52.684;9.758;2023-05-20T02:36:14;102304.22;;;13.46;44.65
5651;BME280;40241;52.684;9.758;2023-05-20T02:38:41;102309.00;;;13.46;44.89
5651;BME280;40241;52.684;9.758;2023-05-20T02:41:06;102311.47;;;13.44;44.67
5651;BME280;40241;52.684;9.758;2023-05-20T02:43:32;102332.06;;;13.43;44.79
5651;BME280;40241;52.684;9.758;2023-05-20T02:45:57;102314.28;;;13.35;44.68
5651;BME280;40241;52.684;9.758;2023-05-20T02:48:23;102331.53;;;13.30;44.78
5651;BME280;40241;52.684;9.758;2023-05-20T02:50:48;102318.09;;;13.37;44.93
5651;BME280;40241;52.684;9.758;2023-05-20T02:53:13;102315.06;;;13.35;44.77
5651;BME280;40241;52.684;9.758;2023-05-20T02:55:39;102320.78;;;13.32;44.79
5651;BME280;40241;52.684;9.758;2023-05-20T02:58:05;102314.47;;;13.31;44.61
5651;BME280;40241;52.684;9.758;2023-05-20T03:00:30;102322.19;;;13.27;44.83
5651;BME280;40241;52.684;9.758;2023-05-20T03:02:56;102326.16;;;13.26;45.01
5651;BME280;40241;52.684;9.758;2023-05-20T03:05:23;102312.06;;;13.24;45.02
5651;BME280;40241;52.684;9.758;2023-05-20T03:07:48;102355.69;;;13.20;45.16
5651;BME280;40241;52.684;9.758;2023-05-20T03:10:14;102304.72;;;13.21;44.91
5651;BME280;40241;52.684;9.758;2023-05-20T03:12:40;102310.25;;;13.21;45.13
5651;BME280;40241;52.684;9.758;2023-05-20T03:15:06;102309.34;;;13.15;45.18
5651;BME280;40241;52.684;9.758;2023-05-20T03:17:31;102328.97;;;13.17;45.18
5651;BME280;40241;52.684;9.758;2023-05-20T03:19:57;102306.75;;;13.12;45.22
5651;BME280;40241;52.684;9.758;2023-05-20T03:22:22;102330.38;;;13.13;45.35
5651;BME280;40241;52.684;9.758;2023-05-20T03:24:48;102332.41;;;13.12;45.38
5651;BME280;40241;52.684;9.758;2023-05-20T03:27:13;102320.28;;;13.10;45.29
5651;BME280;40241;52.684;9.758;2023-05-20T03:29:38;102320.75;;;13.08;45.31
5651;BME280;40241;52.684;9.758;2023-05-20T03:32:04;102320.13;;;13.04;45.46
5651;BME280;40241;52.684;9.758;2023-05-20T03:34:30;102318.59;;;13.03;45.45
5651;BME280;40241;52.684;9.758;2023-05-20T03:36:55;102317.34;;;13.04;45.54
5651;BME280;40241;52.684;9.758;2023-05-20T03:39:21;102323.84;;;13.01;45.47
5651;BME280;40241;52.684;9.758;2023-05-20T03:41:47;102330.88;;;13.02;45.46
5651;BME280;40241;52.684;9.758;2023-05-20T03:44:12;102329.66;;;13.03;45.57
5651;BME280;40241;52.684;9.758;2023-05-20T03:46:37;102323.06;;;13.01;45.66
5651;BME280;40241;52.684;9.758;2023-05-20T03:49:03;102321.06;;;13.01;45.67
5651;BME280;40241;52.684;9.758;2023-05-20T03:51:28;102333.34;;;13.00;45.80
5651;BME280;40241;52.684;9.758;2023-05-20T03:53:54;102331.97;;;12.96;45.88
5651;BME280;40241;52.684;9.758;2023-05-20T03:56:19;102362.81;;;13.03;45.76
5651;BME280;40241;52.684;9.758;2023-05-20T03:58:45;102360.81;;;13.04;45.74
5651;BME280;40241;52.684;9.758;2023-05-20T04:01:10;102351.47;;;13.01;45.87
5651;BME280;40241;52.684;9.758;2023-05-20T04:03:39;102321.34;;;13.12;45.83
5651;BME280;40241;52.684;9.758;2023-05-20T04:06:06;102329.16;;;13.14;45.77
5651;BME280;40241;52.684;9.758;2023-05-20T04:08:31;102342.50;;;13.15;45.78
5651;BME280;40241;52.684;9.758;2023-05-20T04:10:57;102325.63;;;13.13;45.97
5651;BME280;40241;52.684;9.758;2023-05-20T04:13:24;102318.53;;;13.21;45.78
5651;BME280;40241;52.684;9.758;2023-05-20T04:15:50;102326.84;;;13.21;45.82
5651;BME280;40241;52.684;9.758;2023-05-20T04:18:17;102334.16;;;13.24;45.83
5651;BME280;40241;52.684;9.758;2023-05-20T04:20:43;102321.59;;;13.23;45.74
5651;BME280;40241;52.684;9.758;2023-05-20T04:23:09;102343.63;;;13.32;45.90
5651;BME280;40241;52.684;9.758;2023-05-20T04:25:34;102351.63;;;13.30;45.82
5651;BME280;40241;52.684;9.758;2023-05-20T04:28:00;102344.84;;;13.40;46.00
5651;BME280;40241;52.684;9.758;2023-05-20T04:30:26;102320.72;;;13.41;45.79
5651;BME280;40241;52.684;9.758;2023-05-20T04:32:53;102335.22;;;13.50;45.89
5651;BME280;40241;52.684;9.758;2023-05-20T04:35:18;102349.00;;;13.60;45.63
5651;BME280;40241;52.684;9.758;2023-05-20T04:37:43;102345.69;;;13.70;45.69
5651;BME280;40241;52.684;9.758;2023-05-20T04:40:13;102339.03;;;13.77;45.92
5651;BME280;40241;52.684;9.758;2023-05-20T04:42:38;102364.97;;;13.79;45.61
5651;BME280;40241;52.684;9.758;2023-05-20T04:45:04;102327.13;;;13.85;45.71
5651;BME280;40241;52.684;9.758;2023-05-20T04:47:30;102318.34;;;13.87;45.77
5651;BME280;40241;52.684;9.758;2023-05-20T04:49:56;102335.63;;;13.96;45.62
5651;BME280;40241;52.684;9.758;2023-05-20T04:52:22;102327.31;;;13.96;45.52
5651;BME280;40241;52.684;9.758;2023-05-20T04:54:48;102342.31;;;14.04;45.55
5651;BME280;40241;52.684;9.758;2023-05-20T04:57:15;102361.22;;;14.06;45.56
5651;BME280;40241;52.684;9.758;2023-05-20T04:59:41;102336.69;;;14.13;45.79
5651;BME280;40241;52.684;9.758;2023-05-20T05:02:06;102350.16;;;14.20;45.92
5651;BME280;40241;52.684;9.758;2023-05-20T05:04:32;102345.13;;;14.19;45.78
5651;BME280;40241;52.684;9.758;2023-05-20T05:06:57;102339.88;;;14.21;45.69
5651;BME280;40241;52.684;9.758;2023-05-20T05:09:22;102335.78;;;14.31;45.71
5651;BME280;40241;52.684;9.758;2023-05-20T05:11:48;102329.31;;;14.34;45.77
5651;BME280;40241;52.684;9.758;2023-05-20T05:14:13;102318.13;;;14.43;45.56
5651;BME280;40241;52.684;9.758;2023-05-20T05:16:38;102321.75;;;14.49;45.40
5651;BME280;40241;52.684;9.758;2023-05-20T05:19:04;102333.09;;;14.51;45.42
5651;BME280;40241;52.684;9.758;2023-05-20T05:21:29;102316.50;;;14.51;45.51
5651;BME280;40241;52.684;9.758;2023-05-20T05:23:56;102322.81;;;14.52;45.56
5651;BME280;40241;52.684;9.758;2023-05-20T05:26:22;102376.19;;;14.52;45.70
5651;BME280;40241;52.684;9.758;2023-05-20T05:28:47;102339.31;;;14.46;45.80
5651;BME280;40241;52.684;9.758;2023-05-20T05:31:12;102305.63;;;14.48;45.66
5651;BME280;40241;52.684;9.758;2023-05-20T05:33:37;102309.34;;;14.45;45.81
5651;BME280;40241;52.684;9.758;2023-05-20T05:36:03;102316.69;;;14.48;45.67
5651;BME280;40241;52.684;9.758;2023-05-20T05:38:30;102336.72;;;14.57;45.72
5651;BME280;40241;52.684;9.758;2023-05-20T05:40:55;102307.59;;;14.62;45.76
5651;BME280;40241;52.684;9.758;2023-05-20T05:43:21;102318.38;;;14.60;45.87
5651;BME280;40241;52.684;9.758;2023-05-20T05:45:46;102320.00;;;14.66;45.84
5651;BME280;40241;52.684;9.758;2023-05-20T05:48:12;102311.38;;;14.79;45.81
5651;BME280;40241;52.684;9.758;2023-05-20T05:50:37;102313.25;;;14.87;45.76
5651;BME280;40241;52.684;9.758;2023-05-20T05:53:02;102316.34;;;14.89;45.83
5651;BME280;40241;52.684;9.758;2023-05-20T05:55:28;102308.66;;;14.99;45.77
5651;BME280;40241;52.684;9.758;2023-05-20T05:57:53;102308.16;;;15.00;45.89
5651;BME280;40241;52.684;9.758;2023-05-20T06:00:18;102329.47;;;15.09;45.73
5651;BME280;40241;52.684;9.758;2023-05-20T06:02:46;102306.53;;;15.29;45.69
5651;BME280;40241;52.684;9.758;2023-05-20T06:05:11;102319.84;;;15.25;45.55
5651;BME280;40241;52.684;9.758;2023-05-20T06:07:37;102334.34;;;15.34;45.59
5651;BME280;40241;52.684;9.758;2023-05-20T06:10:02;102308.34;;;15.32;45.96
5651;BME280;40241;52.684;9.758;2023-05-20T06:12:28;102312.38;;;15.31;45.82
5651;BME280;40241;52.684;9.758;2023-05-20T06:14:53;102328.84;;;15.40;45.80
5651;BME280;40241;52.684;9.758;2023-05-20T06:17:18;102310.59;;;15.48;45.94
5651;BME280;40241;52.684;9.758;2023-05-20T06:19:44;102321.09;;;15.64;45.87
5651;BME280;40241;52.684;9.758;2023-05-20T06:22:09;102322.50;;;15.74;45.64
5651;BME280;40241;52.684;9.758;2023-05-20T06:24:34;102315.53;;;15.84;45.66
5651;BME280;40241;52.684;9.758;2023-05-20T06:27:00;102318.59;;;15.86;45.67
5651;BME280;40241;52.684;9.758;2023-05-20T06:29:27;102309.56;;;15.91;45.67
5651;BME280;40241;52.684;9.758;2023-05-20T06:31:53;102306.13;;;16.02;45.59
5651;BME280;40241;52.684;9.758;2023-05-20T06:34:18;102302.16;;;16.08;45.52
5651;BME280;40241;52.684;9.758;2023-05-20T06:36:43;102306.25;;;16.13;45.72
5651;BME280;40241;52.684;9.758;2023-05-20T06:39:09;102318.44;;;16.21;45.57
5651;BME280;40241;52.684;9.758;2023-05-20T06:41:38;102305.13;;;16.30;45.69
5651;BME280;40241;52.684;9.758;2023-05-20T06:44:04;102310.19;;;16.32;45.63
5651;BME280;40241;52.684;9.758;2023-05-20T06:46:30;102334.66;;;16.28;45.60
5651;BME280;40241;52.684;9.758;2023-05-20T06:48:56;102303.44;;;16.38;45.48
5651;BME280;40241;52.684;9.758;2023-05-20T06:51:21;102304.69;;;16.37;45.85
5651;BME280;40241;52.684;9.758;2023-05-20T06:53:46;102293.09;;;16.39;45.60
5651;BME280;40241;52.684;9.758;2023-05-20T06:56:12;102306.03;;;16.47;45.65
5651;BME280;40241;52.684;9.758;2023-05-20T06:58:37;102290.91;;;16.48;45.86
5651;BME280;40241;52.684;9.758;2023-05-20T07:01:02;102290.97;;;16.54;45.68
5651;BME280;40241;52.684;9.758;2023-05-20T07:03:28;102280.59;;;16.55;45.63
5651;BME280;40241;52.684;9.758;2023-05-20T07:05:53;102291.00;;;16.60;45.66
5651;BME280;40241;52.684;9.758;2023-05-20T07:08:18;102274.69;;;16.78;45.64
5651;BME280;40241;52.684;9.758;2023-05-20T07:10:44;102275.53;;;16.90;45.47
5651;BME280;40241;52.684;9.758;2023-05-20T07:13:10;102274.81;;;16.95;45.51
5651;BME280;40241;52.684;9.758;2023-05-20T07:15:36;102276.88;;;17.05;45.32
5651;BME280;40241;52.684;9.758;2023-05-20T07:18:01;102280.47;;;17.17;45.22
5651;BME280;40241;52.684;9.758;2023-05-20T07:20:26;102278.50;;;17.29;45.14
5651;BME280;40241;52.684;9.758;2023-05-20T07:22:52;102267.41;;;17.34;45.00
5651;BME280;40241;52.684;9.758;2023-05-20T07:25:17;102266.69;;;17.45;44.93
5651;BME280;40241;52.684;9.758;2023-05-20T07:27:42;102273.81;;;17.51;44.71
5651;BME280;40241;52.684;9.758;2023-05-20T07:30:08;102272.06;;;17.59;44.70
5651;BME280;40241;52.684;9.758;2023-05-20T07:32:33;102272.34;;;17.72;44.64
5651;BME280;40241;52.684;9.758;2023-05-20T07:34:59;102271.34;;;17.81;44.50
5651;BME280;40241;52.684;9.758;2023-05-20T07:37:24;102299.22;;;17.92;44.51
5651;BME280;40241;52.684;9.758;2023-05-20T07:39:50;102267.34;;;18.04;44.42
5651;BME280;40241;52.684;9.758;2023-05-20T07:42:15;102264.03;;;18.11;44.37
5651;BME280;40241;52.684;9.758;2023-05-20T07:44:40;102250.13;;;18.17;44.29
5651;BME280;40241;52.684;9.758;2023-05-20T07:47:06;102267.84;;;18.30;44.12
5651;BME280;40241;52.684;9.758;2023-05-20T07:49:31;102256.69;;;18.36;44.16
5651;BME280;40241;52.684;9.758;2023-05-20T07:51:58;102250.63;;;18.48;43.96
5651;BME280;40241;52.684;9.758;2023-05-20T07:54:23;102254.44;;;18.56;43.80
5651;BME280;40241;52.684;9.758;2023-05-20T07:56:48;102240.47;;;18.62;43.74
5651;BME280;40241;52.684;9.758;2023-05-20T07:59:13;102236.66;;;18.70;43.68
5651;BME280;40241;52.684;9.758;2023-05-20T08:01:40;102244.50;;;18.72;43.70
5651;BME280;40241;52.684;9.758;2023-05-20T08:04:06;102242.97;;;18.77;43.63
5651;BME280;40241;52.684;9.758;2023-05-20T08:06:31;102251.81;;;18.81;43.50
5651;BME280;40241;52.684;9.758;2023-05-20T08:08:57;102254.09;;;18.93;43.50
5651;BME280;40241;52.684;9.758;2023-05-20T08:11:22;102235.84;;;18.87;43.35
5651;BME280;40241;52.684;9.758;2023-05-20T08:13:48;102246.69;;;19.01;43.52
5651;BME280;40241;52.684;9.758;2023-05-20T08:16:14;102255.56;;;19.11;43.19
5651;BME280;40241;52.684;9.758;2023-05-20T08:18:39;102245.66;;;19.10;43.10
5651;BME280;40241;52.684;9.758;2023-05-20T08:21:05;102250.22;;;19.07;43.15
5651;BME280;40241;52.684;9.758;2023-05-20T08:23:34;102226.63;;;19.08;42.79
5651;BME280;40241;52.684;9.758;2023-05-20T08:26:00;102232.66;;;19.23;43.07
5651;BME280;40241;52.684;9.758;2023-05-20T08:28:29;102226.53;;;19.36;42.76
5651;BME280;40241;52.684;9.758;2023-05-20T08:30:54;102228.72;;;19.49;42.57
5651;BME280;40241;52.684;9.758;2023-05-20T08:33:20;102239.09;;;19.59;42.39
5651;BME280;40241;52.684;9.758;2023-05-20T08:35:47;102226.09;;;19.67;42.12
5651;BME280;40241;52.684;9.758;2023-05-20T08:38:12;102230.97;;;19.61;42.00
5651;BME280;40241;52.684;9.758;2023-05-20T08:40:38;102204.31;;;19.60;42.08
5651;BME280;40241;52.684;9.758;2023-05-20T08:43:03;102219.56;;;19.59;42.09
5651;BME280;40241;52.684;9.758;2023-05-20T08:45:31;102227.44;;;19.55;42.21
5651;BME280;40241;52.684;9.758;2023-05-20T08:47:57;102210.25;;;19.46;42.28
5651;BME280;40241;52.684;9.758;2023-05-20T08:50:22;102205.19;;;19.38;42.26
5651;BME280;40241;52.684;9.758;2023-05-20T08:52:48;102251.88;;;19.43;42.09
5651;BME280;40241;52.684;9.758;2023-05-20T08:55:17;102246.34;;;19.73;42.12
5651;BME280;40241;52.684;9.758;2023-05-20T08:57:48;102216.94;;;20.02;41.82
5651;BME280;40241;52.684;9.758;2023-05-20T09:00:14;102215.84;;;20.10;41.62
5651;BME280;40241;52.684;9.758;2023-05-20T09:02:42;102218.59;;;20.16;41.29
5651;BME280;40241;52.684;9.758;2023-05-20T09:05:09;102216.09;;;20.12;41.23
5651;BME280;40241;52.684;9.758;2023-05-20T09:07:35;102210.19;;;19.92;41.24
5651;BME280;40241;52.684;9.758;2023-05-20T09:10:01;102203.44;;;19.76;41.39
5651;BME280;40241;52.684;9.758;2023-05-20T09:12:27;102204.00;;;19.69;41.53
5651;BME280;40241;52.684;9.758;2023-05-20T09:14:52;102205.75;;;19.72;41.56
5651;BME280;40241;52.684;9.758;2023-05-20T09:17:17;102199.97;;;19.65;41.40
5651;BME280;40241;52.684;9.758;2023-05-20T09:19:43;102190.31;;;19.66;41.42
5651;BME280;40241;52.684;9.758;2023-05-20T09:22:08;102196.09;;;19.73;41.64
5651;BME280;40241;52.684;9.758;2023-05-20T09:24:33;102189.50;;;19.71;41.30
5651;BME280;40241;52.684;9.758;2023-05-20T09:27:04;102187.16;;;19.80;40.98
5651;BME280;40241;52.684;9.758;2023-05-20T09:29:32;102177.25;;;19.79;41.25
5651;BME280;40241;52.684;9.758;2023-05-20T09:32:00;102195.91;;;19.95;41.08
5651;BME280;40241;52.684;9.758;2023-05-20T09:34:27;102182.41;;;19.99;41.02
5651;BME280;40241;52.684;9.758;2023-05-20T09:36:53;102197.09;;;20.05;41.20
5651;BME280;40241;52.684;9.758;2023-05-20T09:39:24;102181.31;;;20.08;40.94
5651;BME280;40241;52.684;9.758;2023-05-20T09:41:59;102191.31;;;20.28;40.81
5651;BME280;40241;52.684;9.758;2023-05-20T09:44:27;102196.50;;;20.66;40.58
5651;BME280;40241;52.684;9.758;2023-05-20T09:46:53;102191.28;;;21.00;40.22
5651;BME280;40241;52.684;9.758;2023-05-20T09:49:21;102173.94;;;21.02;39.80
5651;BME280;40241;52.684;9.758;2023-05-20T09:51:48;102178.94;;;20.90;39.69
5651;BME280;40241;52.684;9.758;2023-05-20T09:54:17;102202.19;;;20.79;39.66
5651;BME280;40241;52.684;9.758;2023-05-20T09:56:43;102187.53;;;20.73;40.06
5651;BME280;40241;52.684;9.758;2023-05-20T09:59:09;102185.50;;;20.74;40.20
5651;BME280;40241;52.684;9.758;2023-05-20T10:01:35;102186.25;;;20.74;40.22
5651;BME280;40241;52.684;9.758;2023-05-20T10:04:03;102187.75;;;20.75;40.03
5651;BME280;40241;52.684;9.758;2023-05-20T10:09:27;102180.56;;;20.61;39.67
5651;BME280;40241;52.684;9.758;2023-05-20T10:14:49;102183.00;;;20.46;40.33
5651;BME280;40241;52.684;9.758;2023-05-20T10:19:57;102189.88;;;20.21;40.48
5651;BME280;40241;52.684;9.758;2023-05-20T10:22:28;102177.50;;;20.11;40.56
5651;BME280;40241;52.684;9.758;2023-05-20T10:24:58;102174.22;;;20.07;40.78
5651;BME280;40241;52.684;9.758;2023-05-20T10:27:24;102177.06;;;20.01;40.74
5651;BME280;40241;52.684;9.758;2023-05-20T10:29:51;102176.53;;;20.03;40.92
5651;BME280;40241;52.684;9.758;2023-05-20T10:34:49;102167.69;;;19.99;40.86
5651;BME280;40241;52.684;9.758;2023-05-20T10:37:26;102181.47;;;19.91;40.69
5651;BME280;40241;52.684;9.758;2023-05-20T10:39:52;102186.34;;;19.85;40.96
5651;BME280;40241;52.684;9.758;2023-05-20T10:42:27;102191.44;;;19.81;40.90
5651;BME280;40241;52.684;9.758;2023-05-20T10:44:53;102185.06;;;19.86;41.09
5651;BME280;40241;52.684;9.758;2023-05-20T10:47:19;102192.13;;;19.93;41.02
5651;BME280;40241;52.684;9.758;2023-05-20T10:49:45;102181.88;;;20.01;40.91
5651;BME280;40241;52.684;9.758;2023-05-20T10:52:12;102175.59;;;19.95;41.00
5651;BME280;40241;52.684;9.758;2023-05-20T10:57:19;102181.19;;;19.95;41.08
5651;BME280;40241;52.684;9.758;2023-05-20T10:59:45;102163.66;;;19.94;41.20
5651;BME280;40241;52.684;9.758;2023-05-20T11:02:14;102167.69;;;19.99;41.28
5651;BME280;40241;52.684;9.758;2023-05-20T11:04:42;102168.91;;;20.03;41.22
5651;BME280;40241;52.684;9.758;2023-05-20T11:07:07;102166.34;;;20.05;41.22
5651;BME280;40241;52.684;9.758;2023-05-20T11:09:33;102175.25;;;20.04;41.25
5651;BME280;40241;52.684;9.758;2023-05-20T11:11:59;102213.59;;;20.09;41.20
5651;BME280;40241;52.684;9.758;2023-05-20T11:14:27;102172.53;;;19.98;41.00
5651;BME280;40241;52.684;9.758;2023-05-20T11:16:56;102158.06;;;19.94;41.14
5651;BME280;40241;52.684;9.758;2023-05-20T11:19:22;102170.31;;;19.91;41.59
5651;BME280;40241;52.684;9.758;2023-05-20T11:21:47;102165.97;;;19.90;41.31
5651;BME280;40241;52.684;9.758;2023-05-20T11:24:14;102159.25;;;20.04;41.49
5651;BME280;40241;52.684;9.758;2023-05-20T11:26:46;102160.03;;;20.05;41.46
5651;BME280;40241;52.684;9.758;2023-05-20T11:29:11;102154.03;;;20.19;41.44
5651;BME280;40241;52.684;9.758;2023-05-20T11:31:37;102140.78;;;20.26;41.38
5651;BME280;40241;52.684;9.758;2023-05-20T11:34:03;102158.69;;;20.36;41.31
5651;BME280;40241;52.684;9.758;2023-05-20T11:36:28;102173.78;;;20.51;41.17
5651;BME280;40241;52.684;9.758;2023-05-20T11:38:58;102154.41;;;20.59;40.90
5651;BME280;40241;52.684;9.758;2023-05-20T11:41:25;102148.72;;;20.64;41.03
5651;BME280;40241;52.684;9.758;2023-05-20T11:43:57;102151.13;;;20.55;40.83
5651;BME280;40241;52.684;9.758;2023-05-20T11:46:23;102156.88;;;20.62;41.12
5651;BME280;40241;52.684;9.758;2023-05-20T11:48:53;102134.53;;;20.81;40.74
5651;BME280;40241;52.684;9.758;2023-05-20T11:51:22;102147.25;;;21.01;40.69
5651;BME280;40241;52.684;9.758;2023-05-20T11:53:48;102135.25;;;21.06;40.74
5651;BME280;40241;52.684;9.758;2023-05-20T11:56:13;102135.41;;;21.13;40.86
5651;BME280;40241;52.684;9.758;2023-05-20T11:58:42;102126.75;;;21.30;40.54
5651;BME280;40241;52.684;9.758;2023-05-20T12:01:08;102124.63;;;21.36;40.47
5651;BME280;40241;52.684;9.758;2023-05-20T12:03:33;102123.06;;;21.22;40.55
5651;BME280;40241;52.684;9.758;2023-05-20T12:06:02;102136.22;;;21.27;40.78
5651;BME280;40241;52.684;9.758;2023-05-20T12:08:27;102127.22;;;21.34;40.59
5651;BME280;40241;52.684;9.758;2023-05-20T12:10:53;102122.44;;;21.60;40.57
5651;BME280;40241;52.684;9.758;2023-05-20T12:13:18;102145.22;;;21.70;40.08
5651;BME280;40241;52.684;9.758;2023-05-20T12:15:44;102118.47;;;21.69;40.17
5651;BME280;40241;52.684;9.758;2023-05-20T12:18:09;102120.53;;;21.69;40.31
5651;BME280;40241;52.684;9.758;2023-05-20T12:20:35;102112.00;;;21.61;40.22
5651;BME280;40241;52.684;9.758;2023-05-20T12:23:01;102113.63;;;21.70;40.26
5651;BME280;40241;52.684;9.758;2023-05-20T12:25:27;102100.19;;;21.81;40.19
5651;BME280;40241;52.684;9.758;2023-05-20T12:27:53;102074.00;;;21.79;40.00
5651;BME280;40241;52.684;9.758;2023-05-20T12:30:20;102097.69;;;21.78;40.27
5651;BME280;40241;52.684;9.758;2023-05-20T12:32:47;102085.03;;;21.90;40.05
5651;BME280;40241;52.684;9.758;2023-05-20T12:35:14;102116.53;;;21.96;39.93
5651;BME280;40241;52.684;9.758;2023-05-20T12:37:40;102089.47;;;21.98;39.76
5651;BME280;40241;52.684;9.758;2023-05-20T12:40:07;102073.19;;;21.97;39.80
5651;BME280;40241;52.684;9.758;2023-05-20T12:42:43;102078.81;;;22.10;39.87
5651;BME280;40241;52.684;9.758;2023-05-20T12:45:08;102068.78;;;22.27;39.66
5651;BME280;40241;52.684;9.758;2023-05-20T12:47:34;102057.00;;;22.42;39.55
5651;BME280;40241;52.684;9.758;2023-05-20T12:50:00;102072.63;;;22.37;39.75
5651;BME280;40241;52.684;9.758;2023-05-20T12:52:26;102085.38;;;22.25;39.47
5651;BME280;40241;52.684;9.758;2023-05-20T12:54:55;102049.25;;;22.22;39.59
5651;BME280;40241;52.684;9.758;2023-05-20T12:57:22;102045.38;;;22.12;39.52
5651;BME280;40241;52.684;9.758;2023-05-20T12:59:47;102046.56;;;21.90;39.65
5651;BME280;40241;52.684;9.758;2023-05-20T13:02:12;102057.22;;;21.92;39.99
5651;BME280;40241;52.684;9.758;2023-05-20T13:04:38;102083.97;;;22.06;39.75
5651;BME280;40241;52.684;9.758;2023-05-20T13:07:03;102043.41;;;22.20;39.60
5651;BME280;40241;52.684;9.758;2023-05-20T13:09:29;102032.63;;;22.11;39.57